Time;durP1;ratioP1;P1;durP2;ratioP2;P2;SDS_P1;SDS_P2;PMS_P1;PMS_P2;Temp;Humidity;BMP_temperature;BMP_pressure;BME280_temperature;BME280_humidity;BME280_pressure;Samples;Min_cycle;Max_cycle;Signal;HPM_P1;HPM_P2
2022/07/11 00:04:48;;;;;;;;;;;;;;;;;;12637399;28;20035;-77
2022/07/11 00:10:50;;;;;;;1.13;0.60;;;;;;;;;;12618778;28;19908;-77
2022/07/11 00:16:53;;;;;;;0.68;0.60;;;;;;;;;;12653120;28;20054;-82
2022/07/11 00:22:55;;;;;;;1.10;0.60;;;;;;;;;;12634588;28;20028;-81
2022/07/11 00:28:57;;;;;;;1.25;0.60;;;;;;;;;;12636464;28;20043;-75
2022/07/11 00:34:58;;;;;;;;;;;;;;;;;;12635234;28;20040;-82
2022/07/11 00:41:00;;;;;;;2.77;0.83;;;;;;;;;;12634717;28;20363;-82
2022/07/11 00:47:01;;;;;;;2.55;0.80;;;;;;;;;;12650732;28;20032;-82
2022/07/11 00:53:03;;;;;;;;;;;;;;;;;;12633713;28;20400;-77
2022/07/11 00:59:05;;;;;;;1.30;1.00;;;;;;;;;;12651568;28;19954;-83
2022/07/11 01:05:07;;;;;;;;;;;;;;;;;;12651173;28;20262;-77
2022/07/11 01:11:12;;;;;;;1.27;0.60;;;;;;;;;;12651663;28;19908;-82
2022/07/11 01:17:13;;;;;;;1.48;0.80;;;;;;;;;;12634665;28;20039;-81
2022/07/11 01:23:15;;;;;;;1.15;0.52;;;;;;;;;;12632963;28;20330;-77
2022/07/11 01:29:17;;;;;;;0.80;0.70;;;;;;;;;;12632025;28;20040;-77
2022/07/11 01:35:19;;;;;;;;;;;;;;;;;;12649451;28;20043;-82
2022/07/11 01:41:21;;;;;;;1.33;0.90;;;;;;;;;;12614098;28;20363;-82
2022/07/11 01:47:22;;;;;;;;;;;;;;;;;;12648707;28;20047;-82
2022/07/11 01:53:24;;;;;;;1.10;0.90;;;;;;;;;;12648041;28;19916;-83
2022/07/11 01:59:25;;;;;;;;;;;;;;;;;;12632011;28;20469;-83
2022/07/11 02:05:27;;;;;;;1.00;0.57;;;;;;;;;;12629035;28;19919;-76
2022/07/11 02:11:29;;;;;;;1.58;0.93;;;;;;;;;;12649458;28;20069;-82
2022/07/11 02:17:31;;;;;;;1.10;0.57;;;;;;;;;;12630311;28;20045;-76
2022/07/11 02:23:32;;;;;;;1.48;0.75;;;;;;;;;;12647923;28;20024;-82
2022/07/11 02:29:34;;;;;;;;;;;;;;;;;;12646625;28;20126;-76
2022/07/11 02:35:37;;;;;;;0.77;0.77;;;;;;;;;;12631061;28;19919;-81
2022/07/11 02:41:39;;;;;;;0.60;0.50;;;;;;;;;;12612587;28;20075;-83
2022/07/11 02:47:42;;;;;;;1.05;0.75;;;;;;;;;;12610544;28;20070;-81
2022/07/11 02:53:43;;;;;;;1.05;0.63;;;;;;;;;;12626761;28;20051;-82
2022/07/11 02:59:45;;;;;;;0.65;0.65;;;;;;;;;;12627332;28;20028;-76
2022/07/11 03:05:47;;;;;;;0.65;0.65;;;;;;;;;;12644937;28;20042;-81
2022/07/11 03:11:50;;;;;;;;;;;;;;;;;;12610425;28;20392;-81
2022/07/11 03:17:51;;;;;;;0.90;0.90;;;;;;;;;;12611072;28;19919;-81
2022/07/11 03:23:53;;;;;;;0.90;0.85;;;;;;;;;;12652271;28;20602;-76
2022/07/11 03:29:55;;;;;;;1.30;0.80;;;;;;;;;;12636672;28;20043;-82
2022/07/11 03:35:56;;;;;;;1.40;1.05;;;;;;;;;;12654341;28;20036;-76
2022/07/11 03:41:58;;;;;;;0.95;0.90;;;;;;;;;;12636536;28;20063;-82
2022/07/11 03:48:00;;;;;;;1.23;0.60;;;;;;;;;;12652752;28;20043;-82
2022/07/11 03:54:02;;;;;;;0.65;0.65;;;;;;;;;;12617905;28;20042;-81
2022/07/11 04:00:05;;;;;;;0.80;0.80;;;;;;;;;;12654459;28;20036;-76
2022/07/11 04:06:28;;;;;;;0.60;0.60;;;;;;;;;;12638235;28;20040;-82
2022/07/11 04:12:29;;;;;;;1.52;0.70;;;;;;;;;;12653138;28;20051;-76
2022/07/11 04:18:31;;;;;;;0.43;0.40;;;;;;;;;;12653393;28;20043;-76
2022/07/11 04:24:33;;;;;;;0.77;0.60;;;;;;;;;;12634198;28;20044;-76
2022/07/11 04:30:35;;;;;;;1.02;0.70;;;;;;;;;;12634432;28;20491;-81
2022/07/11 04:36:56;;;;;;;0.95;0.88;;;;;;;;;;12635210;28;20036;-76
2022/07/11 04:42:58;;;;;;;1.13;1.02;;;;;;;;;;12653167;28;20373;-82
2022/07/11 04:49:00;;;;;;;0.90;0.80;;;;;;;;;;12633599;28;20031;-75
2022/07/11 04:55:01;;;;;;;1.20;1.10;;;;;;;;;;12650427;28;20044;-81
2022/07/11 05:01:03;;;;;;;1.40;0.80;;;;;;;;;;12651999;28;20033;-75
2022/07/11 05:07:20;;;;;;;0.73;0.73;;;;;;;;;;12634836;28;20039;-76
2022/07/11 05:13:22;;;;;;;0.80;0.80;;;;;;;;;;12650980;28;20480;-77
2022/07/11 05:19:23;;;;;;;0.70;0.70;;;;;;;;;;12649902;28;20025;-77
2022/07/11 05:25:25;;;;;;;0.70;0.52;;;;;;;;;;12633580;28;20035;-77
2022/07/11 05:31:27;;;;;;;;;;;;;;;;;;12649224;28;20142;-77
2022/07/11 05:37:29;;;;;;;0.85;0.70;;;;;;;;;;12630618;28;19915;-77
2022/07/11 05:43:31;;;;;;;2.10;0.70;;;;;;;;;;12651210;28;20063;-83
2022/07/11 05:49:32;;;;;;;;;;;;;;;;;;12652223;28;20507;-76
2022/07/11 05:55:34;;;;;;;1.00;0.97;;;;;;;;;;12613211;28;19923;-76
2022/07/11 06:01:36;;;;;;;1.20;0.70;;;;;;;;;;12629532;28;20379;-82
2022/07/11 06:13:58;;;;;;;1.77;0.82;;;;;;;;;;12628782;28;19931;-76
2022/07/11 06:20:00;;;;;;;1.85;0.70;;;;;;;;;;12629775;28;20035;-81
2022/07/11 06:26:02;;;;;;;0.55;0.47;;;;;;;;;;12648245;28;20499;-81
2022/07/11 06:32:04;;;;;;;0.60;0.60;;;;;;;;;;12628032;28;20054;-75
2022/07/11 06:38:05;;;;;;;1.20;0.52;;;;;;;;;;12627345;28;20039;-79
2022/07/11 06:44:07;;;;;;;;;;;;;;;;;;12628589;28;20044;-76
2022/07/11 06:50:09;;;;;;;0.90;0.70;;;;;;;;;;12646090;28;20279;-77
2022/07/11 06:56:11;;;;;;;1.33;0.70;;;;;;;;;;12629874;28;20036;-82
2022/07/11 07:02:12;;;;;;;;;;;;;;;;;;12645752;28;20031;-83
2022/07/11 07:08:19;;;;;;;0.70;0.70;;;;;;;;;;12627507;28;19907;-77
2022/07/11 07:14:21;;;;;;;0.50;0.45;;;;;;;;;;12610629;28;20048;-77
2022/07/11 07:20:22;;;;;;;0.50;0.50;;;;;;;;;;12627941;28;20047;-77
2022/07/11 07:26:24;;;;;;;;;;;;;;;;;;12644579;28;20031;-76
2022/07/11 07:32:26;;;;;;;1.10;0.70;;;;;;;;;;12644121;28;19931;-81
2022/07/11 07:38:28;;;;;;;1.27;0.60;;;;;;;;;;12644660;28;20060;-76
2022/07/11 07:44:30;;;;;;;0.70;0.47;;;;;;;;;;12644622;28;20036;-81
2022/07/11 07:50:32;;;;;;;2.13;0.50;;;;;;;;;;12610858;28;20054;-81
2022/07/11 07:56:34;;;;;;;0.52;0.50;;;;;;;;;;12609822;28;20043;-77
2022/07/11 08:02:36;;;;;;;0.73;0.50;;;;;;;;;;12644370;28;20043;-81
2022/07/11 08:08:37;;;;;;;1.23;0.60;;;;;;;;;;12631681;28;20039;-82
2022/07/11 08:14:39;;;;;;;0.50;0.50;;;;;;;;;;12653670;28;20389;-81
2022/07/11 08:20:41;;;;;;;1.98;0.73;;;;;;;;;;12652463;28;20043;-76
2022/07/11 08:26:43;;;;;;;0.68;0.50;;;;;;;;;;12634175;28;20043;-82
2022/07/11 08:32:44;;;;;;;1.13;0.60;;;;;;;;;;12651842;28;20040;-76
2022/07/11 08:38:46;;;;;;;1.00;0.93;;;;;;;;;;12635498;28;20499;-77
2022/07/11 08:44:48;;;;;;;1.38;0.60;;;;;;;;;;12632962;28;20040;-76
2022/07/11 08:50:50;;;;;;;0.63;0.60;;;;;;;;;;12632575;28;20039;-76
2022/07/11 08:56:54;;;;;;;0.90;0.60;;;;;;;;;;12650725;28;20055;-81
2022/07/11 09:02:56;;;;;;;1.33;0.90;;;;;;;;;;12618001;28;20035;-81
2022/07/11 09:08:59;;;;;;;0.73;0.60;;;;;;;;;;12654166;28;20443;-76
2022/07/11 09:15:01;;;;;;;1.08;0.70;;;;;;;;;;12649819;28;20050;-82
2022/07/11 09:27:23;;;;;;;0.50;0.50;;;;;;;;;;12649391;28;20062;-82
2022/07/11 09:33:24;;;;;;;0.73;0.50;;;;;;;;;;12631005;28;20039;-82
2022/07/11 09:39:27;;;;;;;0.93;0.50;;;;;;;;;;12648827;28;20046;-82
2022/07/11 09:45:30;;;;;;;0.90;0.40;;;;;;;;;;12647917;28;20532;-81
2022/07/11 09:51:33;;;;;;;1.38;0.30;;;;;;;;;;12647646;28;20028;-81
2022/07/11 09:57:36;;;;;;;0.52;0.52;;;;;;;;;;12647255;28;20400;-76
2022/07/11 10:03:37;;;;;;;1.40;0.50;;;;;;;;;;12633101;28;20036;-77
2022/07/11 10:09:39;;;;;;;0.60;0.60;;;;;;;;;;12629021;28;20035;-77
2022/07/11 10:15:44;;;;;;;0.70;0.50;;;;;;;;;;12629108;28;20051;-76
2022/07/11 10:22:06;;;;;;;1.40;0.50;;;;;;;;;;12611710;28;20043;-82
2022/07/11 10:28:16;;;;;;;0.80;0.55;;;;;;;;;;12628234;28;20388;-77
2022/07/11 10:34:21;;;;;;;0.60;0.60;;;;;;;;;;12627764;28;20345;-76
2022/07/11 10:40:43;;;;;;;0.68;0.60;;;;;;;;;;12647366;28;20063;-76
2022/07/11 10:46:44;;;;;;;1.90;0.55;;;;;;;;;;12645613;28;20070;-82
2022/07/11 10:52:48;;;;;;;0.38;0.30;;;;;;;;;;12628898;28;20531;-77
2022/07/11 10:58:59;;;;;;;1.35;0.57;;;;;;;;;;12626728;28;20035;-82
2022/07/11 11:05:01;;;;;;;0.83;0.30;;;;;;;;;;12610324;28;20032;-82
2022/07/11 11:11:04;;;;;;;0.45;0.35;;;;;;;;;;12626943;28;20036;-82
2022/07/11 11:17:24;;;;;;;1.65;0.50;;;;;;;;;;12627137;28;20054;-82
2022/07/11 11:23:49;;;;;;;1.83;0.50;;;;;;;;;;12625743;28;20031;-77
2022/07/11 11:29:52;;;;;;;1.38;0.50;;;;;;;;;;12631171;28;20040;-77
2022/07/11 11:36:04;;;;;;;2.63;0.80;;;;;;;;;;12626401;28;20059;-77
2022/07/11 11:42:11;;;;;;;0.85;0.30;;;;;;;;;;12648207;28;20056;-82
2022/07/11 11:48:25;;;;;;;1.45;0.40;;;;;;;;;;12635749;28;20028;-82
2022/07/11 11:54:27;;;;;;;0.68;0.40;;;;;;;;;;12665713;28;20423;-82
2022/07/11 12:00:31;;;;;;;1.02;0.50;;;;;;;;;;12641529;28;20040;-82
2022/07/11 12:06:34;;;;;;;2.17;0.40;;;;;;;;;;12636830;28;20032;-82
2022/07/11 12:12:48;;;;;;;0.68;0.32;;;;;;;;;;12651253;28;20055;-82
2022/07/11 12:18:53;;;;;;;0.60;0.50;;;;;;;;;;12649700;28;20043;-82
2022/07/11 12:24:55;;;;;;;0.90;0.57;;;;;;;;;;12648972;28;20028;-76
2022/07/11 12:30:58;;;;;;;0.30;0.30;;;;;;;;;;12615818;28;20418;-81
2022/07/11 12:37:04;;;;;;;1.58;0.50;;;;;;;;;;12650252;28;20048;-76
2022/07/11 12:44:57;;;;;;;1.88;0.30;;;;;;;;;;12649803;28;20056;-82
2022/07/11 12:49:27;;;;;;;1.50;0.30;;;;;;;;;;12649016;28;20040;-77
2022/07/11 12:55:33;;;;;;;2.63;0.45;;;;;;;;;;12649658;28;20044;-80
2022/07/11 13:01:35;;;;;;;1.00;0.50;;;;;;;;;;12648343;28;20035;-81
2022/07/11 13:13:57;;;;;;;0.90;0.40;;;;;;;;;;12629950;28;20040;-77
2022/07/11 13:19:59;;;;;;;1.83;0.50;;;;;;;;;;12648911;28;20032;-82
2022/07/11 13:26:02;;;;;;;1.90;0.75;;;;;;;;;;12628911;28;20039;-81
2022/07/11 13:32:04;;;;;;;1.75;0.65;;;;;;;;;;12630664;28;20032;-81
2022/07/11 13:38:06;;;;;;;1.33;0.50;;;;;;;;;;12646993;28;20048;-76
2022/07/11 13:44:08;;;;;;;1.40;0.77;;;;;;;;;;12612082;28;20036;-81
2022/07/11 13:50:10;;;;;;;1.77;0.40;;;;;;;;;;12611185;28;20032;-77
2022/07/11 13:56:11;;;;;;;2.70;0.60;;;;;;;;;;12646501;28;20039;-82
2022/07/11 14:02:13;;;;;;;0.82;0.60;;;;;;;;;;12628809;28;20028;-81
2022/07/11 14:08:15;;;;;;;0.75;0.45;;;;;;;;;;12645494;28;20353;-82
2022/07/11 14:14:17;;;;;;;1.35;0.40;;;;;;;;;;12644996;28;20514;-76
2022/07/11 14:20:19;;;;;;;1.38;0.52;;;;;;;;;;12644428;28;20036;-82
2022/07/11 14:26:21;;;;;;;0.95;0.30;;;;;;;;;;12629852;28;20515;-77
2022/07/11 14:32:23;;;;;;;1.13;0.50;;;;;;;;;;12651027;28;20043;-81
2022/07/11 14:38:25;;;;;;;1.15;0.30;;;;;;;;;;12626318;28;20055;-76
2022/07/11 14:44:30;;;;;;;1.17;0.70;;;;;;;;;;12641004;28;20032;-81
2022/07/11 14:50:34;;;;;;;1.23;0.60;;;;;;;;;;12606792;28;20502;-76
2022/07/11 14:56:37;;;;;;;1.75;0.50;;;;;;;;;;12623238;28;20051;-80
2022/07/11 15:15:19;;;;;;;0.80;0.25;;;;;;;;;;12621439;28;20044;-82
2022/07/11 15:21:21;;;;;;;0.20;0.20;;;;;;;;;;12607209;28;20043;-77
2022/07/11 15:27:22;;;;;;;1.67;0.50;;;;;;;;;;12641062;28;20027;-82
2022/07/11 15:33:24;;;;;;;0.52;0.30;;;;;;;;;;12621854;28;20052;-82
2022/07/11 15:39:26;;;;;;;0.93;0.52;;;;;;;;;;12574316;28;1368868;-77
2022/07/11 15:45:28;;;;;;;1.13;0.40;;;;;;;;;;12624301;28;20028;-82
2022/07/11 15:51:30;;;;;;;0.60;0.30;;;;;;;;;;12607691;28;20488;-77
2022/07/11 15:57:32;;;;;;;2.78;0.60;;;;;;;;;;12640985;28;20044;-77
2022/07/11 16:03:34;;;;;;;0.75;0.30;;;;;;;;;;12623120;28;20040;-76
2022/07/11 16:09:36;;;;;;;1.40;0.60;;;;;;;;;;12642397;28;20050;-75
2022/07/11 16:15:38;;;;;;;1.15;0.50;;;;;;;;;;12640814;28;20044;-76
2022/07/11 16:21:40;;;;;;;1.63;0.40;;;;;;;;;;12644591;28;20040;-81
2022/07/11 16:27:42;;;;;;;1.00;0.40;;;;;;;;;;12650046;28;20051;-76
2022/07/11 16:33:43;;;;;;;1.73;0.55;;;;;;;;;;12649322;28;20036;-76
2022/07/11 16:46:08;;;;;;;0.38;0.30;;;;;;;;;;12648765;28;20399;-82
2022/07/11 16:52:10;;;;;;;1.08;0.77;;;;;;;;;;12630542;28;20028;-82
2022/07/11 16:58:12;;;;;;;0.45;0.30;;;;;;;;;;12648455;28;20035;-83
2022/07/11 17:04:14;;;;;;;1.35;0.60;;;;;;;;;;12647875;28;20043;-77
2022/07/11 17:10:15;;;;;;;1.05;0.32;;;;;;;;;;12629747;28;20036;-78
2022/07/11 17:16:17;;;;;;;1.65;0.40;;;;;;;;;;12628162;28;20048;-82
2022/07/11 17:22:19;;;;;;;0.95;0.40;;;;;;;;;;12611866;28;20050;-79
2022/07/11 17:28:21;;;;;;;0.22;0.20;;;;;;;;;;12628514;28;20036;-78
2022/07/11 17:34:23;;;;;;;0.40;0.35;;;;;;;;;;12647313;28;20036;-82
2022/07/11 17:40:25;;;;;;;0.95;0.40;;;;;;;;;;12612836;28;20078;-77
2022/07/11 17:46:27;;;;;;;0.40;0.32;;;;;;;;;;12649044;28;20061;-76
2022/07/11 17:52:31;;;;;;;1.00;0.40;;;;;;;;;;12630181;28;20035;-82
2022/07/11 17:58:32;;;;;;;0.75;0.38;;;;;;;;;;12629200;28;20039;-82
2022/07/11 18:04:34;;;;;;;0.40;0.32;;;;;;;;;;12629495;28;20036;-82
2022/07/11 18:10:36;;;;;;;1.02;0.30;;;;;;;;;;12648693;28;20031;-76
2022/07/11 18:16:38;;;;;;;0.40;0.40;;;;;;;;;;12646701;28;20048;-76
2022/07/11 18:22:40;;;;;;;0.93;0.40;;;;;;;;;;12646381;28;21934;-82
2022/07/11 18:28:42;;;;;;;0.95;0.40;;;;;;;;;;12646228;28;20403;-81
2022/07/11 18:34:44;;;;;;;1.40;0.40;;;;;;;;;;12628434;28;20040;-82
2022/07/11 18:47:06;;;;;;;2.38;0.35;;;;;;;;;;12645250;28;20031;-82
2022/07/11 18:53:08;;;;;;;0.40;0.30;;;;;;;;;;12644507;28;20047;-82
2022/07/11 18:59:10;;;;;;;0.90;0.32;;;;;;;;;;12627025;28;20043;-82
2022/07/11 19:05:12;;;;;;;0.45;0.40;;;;;;;;;;12644017;28;20039;-82
2022/07/11 19:11:14;;;;;;;0.30;0.30;;;;;;;;;;12646001;28;20039;-82
2022/07/11 19:17:16;;;;;;;0.82;0.30;;;;;;;;;;12644819;28;20048;-77
2022/07/11 19:23:18;;;;;;;0.30;0.30;;;;;;;;;;12643958;28;20040;-77
2022/07/11 19:29:20;;;;;;;0.60;0.30;;;;;;;;;;12626126;28;20051;-77
2022/07/11 19:35:21;;;;;;;1.00;0.28;;;;;;;;;;12643576;28;20039;-82
2022/07/11 19:41:23;;;;;;;0.32;0.30;;;;;;;;;;12644279;28;20516;-76
2022/07/11 19:47:25;;;;;;;0.17;0.17;;;;;;;;;;12643769;28;20040;-82
2022/07/11 19:53:26;;;;;;;1.05;0.30;;;;;;;;;;12643536;28;20496;-82
2022/07/11 19:59:28;;;;;;;0.22;0.20;;;;;;;;;;12610353;28;20040;-82
2022/07/11 20:05:30;;;;;;;0.40;0.20;;;;;;;;;;12631677;28;20526;-83
2022/07/11 20:11:32;;;;;;;1.98;0.25;;;;;;;;;;12618209;28;20043;-83
2022/07/11 20:17:34;;;;;;;0.40;0.32;;;;;;;;;;12634255;28;20057;-77
2022/07/11 20:23:35;;;;;;;0.77;0.20;;;;;;;;;;12634396;28;20040;-83
2022/07/11 20:29:37;;;;;;;0.32;0.20;;;;;;;;;;12652018;28;20028;-81
2022/07/11 20:35:39;;;;;;;1.38;0.20;;;;;;;;;;12650856;28;20117;-76
2022/07/11 20:41:41;;;;;;;0.68;0.32;;;;;;;;;;12652955;28;20062;-82
2022/07/11 20:47:43;;;;;;;0.20;0.20;;;;;;;;;;12650171;28;20032;-76
2022/07/11 20:53:44;;;;;;;0.50;0.30;;;;;;;;;;12632898;28;20051;-76
2022/07/11 20:59:48;;;;;;;0.47;0.08;;;;;;;;;;12650444;28;20032;-76
2022/07/11 21:05:50;;;;;;;0.30;0.20;;;;;;;;;;12631651;28;20511;-76
2022/07/11 21:11:52;;;;;;;0.30;0.30;;;;;;;;;;12630922;28;20058;-76
2022/07/11 21:17:54;;;;;;;0.50;0.20;;;;;;;;;;12648657;28;20495;-82
2022/07/11 21:23:56;;;;;;;0.40;0.20;;;;;;;;;;12648537;28;20058;-76
2022/07/11 21:29:58;;;;;;;0.60;0.20;;;;;;;;;;12630291;28;20036;-77
2022/07/11 21:35:59;;;;;;;0.10;0.10;;;;;;;;;;12647966;28;20036;-81
2022/07/11 21:42:01;;;;;;;1.85;0.52;;;;;;;;;;12647180;28;20048;-75
2022/07/11 21:48:03;;;;;;;0.50;0.20;;;;;;;;;;12646624;28;20388;-81
2022/07/11 21:54:05;;;;;;;0.32;0.22;;;;;;;;;;12628414;28;20403;-82
2022/07/11 22:00:10;;;;;;;0.30;0.22;;;;;;;;;;12628222;28;20032;-76
2022/07/11 22:06:12;;;;;;;1.10;0.20;;;;;;;;;;12627894;28;20039;-82
2022/07/11 22:12:13;;;;;;;0.75;0.30;;;;;;;;;;12628569;28;20032;-82
2022/07/11 22:18:16;;;;;;;0.20;0.20;;;;;;;;;;12610358;28;20047;-82
2022/07/11 22:24:18;;;;;;;0.32;0.32;;;;;;;;;;12645003;28;20471;-76
2022/07/11 22:30:21;;;;;;;1.65;0.20;;;;;;;;;;12626365;28;20054;-76
2022/07/11 22:36:23;;;;;;;0.30;0.30;;;;;;;;;;12626259;28;20055;-76
2022/07/11 22:42:25;;;;;;;0.70;0.30;;;;;;;;;;12626344;28;20048;-76
2022/07/11 22:48:26;;;;;;;0.85;0.40;;;;;;;;;;12626230;28;20039;-82
2022/07/11 22:54:28;;;;;;;1.90;0.55;;;;;;;;;;12644323;28;20063;-75
2022/07/11 23:00:30;;;;;;;1.02;0.30;;;;;;;;;;12609007;28;20031;-81
2022/07/11 23:06:32;;;;;;;1.30;0.50;;;;;;;;;;12642975;28;20028;-82
2022/07/11 23:12:33;;;;;;;0.68;0.30;;;;;;;;;;12624389;28;20028;-83
2022/07/11 23:18:35;;;;;;;0.30;0.30;;;;;;;;;;12624523;28;20051;-77
2022/07/11 23:24:37;;;;;;;0.20;0.20;;;;;;;;;;12643121;28;20059;-77
2022/07/11 23:30:38;;;;;;;1.60;0.55;;;;;;;;;;12642907;28;20387;-77
2022/07/11 23:36:40;;;;;;;0.47;0.40;;;;;;;;;;12643119;28;20059;-83
2022/07/11 23:42:42;;;;;;;0.40;0.30;;;;;;;;;;12617400;28;20040;-82
2022/07/11 23:48:43;;;;;;;0.30;0.30;;;;;;;;;;12652088;28;20035;-83
2022/07/11 23:54:46;;;;;;;0.93;0.50;;;;;;;;;;12617328;28;20062;-83
